Portada
METAR-TAF:

METAR-TAF

Aeroports :

Curaçao, Antilles Neerlandeses

latitud: 12-12N, longitud: 068-58W, altitud: 9 m

Observació

L'informe es va fer fa 30 minuts, a les 01:00 UTC
Vent 9 kt del Est
Temperatura 28°C
Humitat 74%
Pressió 1011 hPa
Visibilitat 10 km o més
Escasses núvols a una alçada de 1800 ft

METAR: TNCC 160100Z 08009KT 9999 FEW018 28/23 Q1011 NOSIG

Hora: 21:30 (01:30 UTC)

Pronòstic

L'informe es va fer fa 2 hores i 15 minuts, a les 23:15 UTC
Pronòstic vàlid del 16 a les 00 UTC al 16 a les 24 UTC
Vent 4 kt del Est
Visibilitat 10 km o més
Núvols disperses a una alçada de 1800 ft
Temporalment
l' 16 a les 00 UTC al 16 a les 24 UTC
Visibilitat: 5000 m
Cel ennuvolat a una alçada de 1500 ft
xàfecs de pluja

TAF: TNCC 152315Z 1600/1624 09004KT 9999 SCT018 TEMPO 1600/1624 5000 SHRA BKN015

Observacions i pronòstics meteorològics de més de 4000 aeroports (METAR i TAF).

Les estacions disponibles són els punts grocs i vermells al mapa.

Posi el ratolí al punt desitjat per veure el nom de l'estació.

Feu clic per veure les observacions i els pronòstics meteorològics.

Per canviar el mapa: feu clic els botons verds amb una creu de color negre per apropar; al botó verd amb un guió per allunyar la imatge; o en les fletxes verdes per a mapes adjacents.


METAR-TAF: